sensor_id;sensor_type;location;lat;lon;timestamp;temperature;humidity
34147;DHT22;20423;49.448;9.056;2023-08-24T00:02:02;17.90;99.90
34147;DHT22;20423;49.448;9.056;2023-08-24T00:04:28;17.90;99.90
34147;DHT22;20423;49.448;9.056;2023-08-24T00:06:54;17.90;99.90
34147;DHT22;20423;49.448;9.056;2023-08-24T00:09:20;17.80;99.90
34147;DHT22;20423;49.448;9.056;2023-08-24T00:11:46;17.70;99.90
34147;DHT22;20423;49.448;9.056;2023-08-24T00:14:12;17.70;99.90
34147;DHT22;20423;49.448;9.056;2023-08-24T00:17:02;17.60;99.90
34147;DHT22;20423;49.448;9.056;2023-08-24T00:19:28;17.50;99.90
34147;DHT22;20423;49.448;9.056;2023-08-24T00:21:54;17.50;99.90
34147;DHT22;20423;49.448;9.056;2023-08-24T00:24:19;17.50;99.90
34147;DHT22;20423;49.448;9.056;2023-08-24T00:26:45;17.40;99.90
34147;DHT22;20423;49.448;9.056;2023-08-24T00:29:11;17.50;99.90
34147;DHT22;20423;49.448;9.056;2023-08-24T00:31:37;17.50;99.90
34147;DHT22;20423;49.448;9.056;2023-08-24T00:34:03;17.50;99.90
34147;DHT22;20423;49.448;9.056;2023-08-24T00:36:29;17.50;99.90
34147;DHT22;20423;49.448;9.056;2023-08-24T00:38:54;17.50;99.90
34147;DHT22;20423;49.448;9.056;2023-08-24T00:41:20;17.60;99.90
34147;DHT22;20423;49.448;9.056;2023-08-24T00:43:46;17.70;99.90
34147;DHT22;20423;49.448;9.056;2023-08-24T00:46:12;17.70;99.90
34147;DHT22;20423;49.448;9.056;2023-08-24T00:48:38;17.70;99.90
34147;DHT22;20423;49.448;9.056;2023-08-24T00:51:04;17.80;99.90
34147;DHT22;20423;49.448;9.056;2023-08-24T00:53:31;17.80;99.90
34147;DHT22;20423;49.448;9.056;2023-08-24T00:55:58;17.80;99.90
34147;DHT22;20423;49.448;9.056;2023-08-24T00:58:27;17.80;99.90
34147;DHT22;20423;49.448;9.056;2023-08-24T01:00:54;17.80;99.90
34147;DHT22;20423;49.448;9.056;2023-08-24T01:03:24;17.90;99.90
34147;DHT22;20423;49.448;9.056;2023-08-24T01:05:51;17.90;99.90
34147;DHT22;20423;49.448;9.056;2023-08-24T01:08:18;17.90;99.90
34147;DHT22;20423;49.448;9.056;2023-08-24T01:10:53;18.00;99.90
34147;DHT22;20423;49.448;9.056;2023-08-24T01:16:13;17.90;99.90
34147;DHT22;20423;49.448;9.056;2023-08-24T01:18:41;17.90;99.90
34147;DHT22;20423;49.448;9.056;2023-08-24T01:21:08;17.80;99.90
34147;DHT22;20423;49.448;9.056;2023-08-24T01:24:06;17.80;99.90
34147;DHT22;20423;49.448;9.056;2023-08-24T01:26:37;17.70;99.90
34147;DHT22;20423;49.448;9.056;2023-08-24T01:29:04;17.60;99.90
34147;DHT22;20423;49.448;9.056;2023-08-24T01:31:30;17.70;99.90
34147;DHT22;20423;49.448;9.056;2023-08-24T01:33:55;17.60;99.90
34147;DHT22;20423;49.448;9.056;2023-08-24T01:36:21;17.50;99.90
34147;DHT22;20423;49.448;9.056;2023-08-24T01:38:57;17.50;99.90
34147;DHT22;20423;49.448;9.056;2023-08-24T01:41:28;17.40;99.90
34147;DHT22;20423;49.448;9.056;2023-08-24T01:43:54;17.30;99.90
34147;DHT22;20423;49.448;9.056;2023-08-24T01:46:22;17.20;99.90
34147;DHT22;20423;49.448;9.056;2023-08-24T01:48:49;17.10;99.90
34147;DHT22;20423;49.448;9.056;2023-08-24T01:51:18;17.00;99.90
34147;DHT22;20423;49.448;9.056;2023-08-24T01:53:45;17.00;99.90
34147;DHT22;20423;49.448;9.056;2023-08-24T01:56:13;16.90;99.90
34147;DHT22;20423;49.448;9.056;2023-08-24T01:58:39;16.90;99.90
34147;DHT22;20423;49.448;9.056;2023-08-24T02:01:05;16.80;99.90
34147;DHT22;20423;49.448;9.056;2023-08-24T02:03:32;16.80;99.90
34147;DHT22;20423;49.448;9.056;2023-08-24T02:05:58;16.80;99.90
34147;DHT22;20423;49.448;9.056;2023-08-24T02:08:23;16.70;99.90
34147;DHT22;20423;49.448;9.056;2023-08-24T02:10:50;16.70;99.90
34147;DHT22;20423;49.448;9.056;2023-08-24T02:13:16;16.70;99.90
34147;DHT22;20423;49.448;9.056;2023-08-24T02:15:42;16.80;99.90
34147;DHT22;20423;49.448;9.056;2023-08-24T02:18:07;16.80;99.90
34147;DHT22;20423;49.448;9.056;2023-08-24T02:20:37;16.90;99.90
34147;DHT22;20423;49.448;9.056;2023-08-24T02:23:04;17.10;99.90
34147;DHT22;20423;49.448;9.056;2023-08-24T02:25:30;17.20;99.90
34147;DHT22;20423;49.448;9.056;2023-08-24T02:27:55;17.30;99.90
34147;DHT22;20423;49.448;9.056;2023-08-24T02:30:21;17.40;99.90
34147;DHT22;20423;49.448;9.056;2023-08-24T02:32:46;17.40;99.90
34147;DHT22;20423;49.448;9.056;2023-08-24T02:35:15;17.40;99.90
34147;DHT22;20423;49.448;9.056;2023-08-24T02:37:41;17.40;99.90
34147;DHT22;20423;49.448;9.056;2023-08-24T02:40:07;17.40;99.90
34147;DHT22;20423;49.448;9.056;2023-08-24T02:42:35;17.50;99.90
34147;DHT22;20423;49.448;9.056;2023-08-24T02:45:00;17.50;99.90
34147;DHT22;20423;49.448;9.056;2023-08-24T02:47:26;17.50;99.90
34147;DHT22;20423;49.448;9.056;2023-08-24T02:49:52;17.50;99.90
34147;DHT22;20423;49.448;9.056;2023-08-24T02:52:18;17.50;99.90
34147;DHT22;20423;49.448;9.056;2023-08-24T02:54:44;17.50;99.90
34147;DHT22;20423;49.448;9.056;2023-08-24T02:57:09;17.70;99.90
34147;DHT22;20423;49.448;9.056;2023-08-24T02:59:35;17.70;99.90
34147;DHT22;20423;49.448;9.056;2023-08-24T03:02:01;17.90;99.90
34147;DHT22;20423;49.448;9.056;2023-08-24T03:04:27;17.90;99.90
34147;DHT22;20423;49.448;9.056;2023-08-24T03:06:52;17.90;99.90
34147;DHT22;20423;49.448;9.056;2023-08-24T03:09:18;18.00;99.90
34147;DHT22;20423;49.448;9.056;2023-08-24T03:11:56;18.00;99.90
34147;DHT22;20423;49.448;9.056;2023-08-24T03:14:22;18.00;99.90
34147;DHT22;20423;49.448;9.056;2023-08-24T03:16:48;18.00;99.90
34147;DHT22;20423;49.448;9.056;2023-08-24T03:19:15;18.00;99.90
34147;DHT22;20423;49.448;9.056;2023-08-24T03:21:44;18.00;99.90
34147;DHT22;20423;49.448;9.056;2023-08-24T03:24:09;18.00;99.90
34147;DHT22;20423;49.448;9.056;2023-08-24T03:26:35;18.00;99.90
34147;DHT22;20423;49.448;9.056;2023-08-24T03:29:01;18.10;99.90
34147;DHT22;20423;49.448;9.056;2023-08-24T03:31:26;18.20;99.90
34147;DHT22;20423;49.448;9.056;2023-08-24T03:33:53;18.30;99.90
34147;DHT22;20423;49.448;9.056;2023-08-24T03:36:19;18.40;99.90
34147;DHT22;20423;49.448;9.056;2023-08-24T03:38:45;18.40;99.90
34147;DHT22;20423;49.448;9.056;2023-08-24T03:41:11;18.50;99.90
34147;DHT22;20423;49.448;9.056;2023-08-24T03:43:36;18.60;99.90
34147;DHT22;20423;49.448;9.056;2023-08-24T03:46:05;18.70;99.90
34147;DHT22;20423;49.448;9.056;2023-08-24T03:48:34;18.80;99.90
34147;DHT22;20423;49.448;9.056;2023-08-24T03:51:00;18.80;99.90
34147;DHT22;20423;49.448;9.056;2023-08-24T03:53:26;18.90;99.90
34147;DHT22;20423;49.448;9.056;2023-08-24T03:55:52;19.00;99.90
34147;DHT22;20423;49.448;9.056;2023-08-24T03:58:20;19.00;99.90
34147;DHT22;20423;49.448;9.056;2023-08-24T04:00:47;19.10;99.90
34147;DHT22;20423;49.448;9.056;2023-08-24T04:03:13;19.10;99.90
34147;DHT22;20423;49.448;9.056;2023-08-24T04:05:38;19.20;99.90
34147;DHT22;20423;49.448;9.056;2023-08-24T04:08:04;19.20;99.90
34147;DHT22;20423;49.448;9.056;2023-08-24T04:10:30;19.20;99.90
34147;DHT22;20423;49.448;9.056;2023-08-24T04:12:57;19.30;99.90
34147;DHT22;20423;49.448;9.056;2023-08-24T04:15:39;19.30;99.90
34147;DHT22;20423;49.448;9.056;2023-08-24T04:18:05;19.40;99.90
34147;DHT22;20423;49.448;9.056;2023-08-24T04:20:31;19.50;99.90
34147;DHT22;20423;49.448;9.056;2023-08-24T04:22:56;19.50;99.90
34147;DHT22;20423;49.448;9.056;2023-08-24T04:25:22;19.50;99.90
34147;DHT22;20423;49.448;9.056;2023-08-24T04:27:47;19.50;99.90
34147;DHT22;20423;49.448;9.056;2023-08-24T04:30:13;19.60;99.90
34147;DHT22;20423;49.448;9.056;2023-08-24T04:32:39;19.60;99.90
34147;DHT22;20423;49.448;9.056;2023-08-24T04:35:05;19.60;99.90
34147;DHT22;20423;49.448;9.056;2023-08-24T04:37:31;19.60;99.90
34147;DHT22;20423;49.448;9.056;2023-08-24T04:39:57;19.60;99.90
34147;DHT22;20423;49.448;9.056;2023-08-24T04:42:22;19.60;99.90
34147;DHT22;20423;49.448;9.056;2023-08-24T04:44:50;19.60;99.90
34147;DHT22;20423;49.448;9.056;2023-08-24T04:47:15;19.50;99.90
34147;DHT22;20423;49.448;9.056;2023-08-24T04:49:41;19.50;99.90
34147;DHT22;20423;49.448;9.056;2023-08-24T04:52:07;19.50;99.90
34147;DHT22;20423;49.448;9.056;2023-08-24T04:54:33;19.50;99.90
34147;DHT22;20423;49.448;9.056;2023-08-24T04:56:59;19.60;99.90
34147;DHT22;20423;49.448;9.056;2023-08-24T04:59:24;19.60;99.90
34147;DHT22;20423;49.448;9.056;2023-08-24T05:01:50;19.50;99.90
34147;DHT22;20423;49.448;9.056;2023-08-24T05:04:16;19.60;99.90
34147;DHT22;20423;49.448;9.056;2023-08-24T05:06:41;19.70;99.90
34147;DHT22;20423;49.448;9.056;2023-08-24T05:09:07;19.70;99.90
34147;DHT22;20423;49.448;9.056;2023-08-24T05:11:33;19.60;99.90
34147;DHT22;20423;49.448;9.056;2023-08-24T05:13:59;19.70;99.90
34147;DHT22;20423;49.448;9.056;2023-08-24T05:16:25;19.70;99.90
34147;DHT22;20423;49.448;9.056;2023-08-24T05:18:50;19.70;99.90
34147;DHT22;20423;49.448;9.056;2023-08-24T05:21:44;19.80;99.90
34147;DHT22;20423;49.448;9.056;2023-08-24T05:24:10;19.90;99.90
34147;DHT22;20423;49.448;9.056;2023-08-24T05:26:35;20.00;99.90
34147;DHT22;20423;49.448;9.056;2023-08-24T05:29:01;20.10;99.90
34147;DHT22;20423;49.448;9.056;2023-08-24T05:31:27;20.30;99.90
34147;DHT22;20423;49.448;9.056;2023-08-24T05:33:52;20.30;99.90
34147;DHT22;20423;49.448;9.056;2023-08-24T05:36:52;20.40;99.90
34147;DHT22;20423;49.448;9.056;2023-08-24T05:39:18;20.50;99.90
34147;DHT22;20423;49.448;9.056;2023-08-24T05:41:43;20.50;99.90
34147;DHT22;20423;49.448;9.056;2023-08-24T05:44:09;20.60;99.90
34147;DHT22;20423;49.448;9.056;2023-08-24T05:46:34;20.60;99.90
34147;DHT22;20423;49.448;9.056;2023-08-24T05:49:00;20.70;99.90
34147;DHT22;20423;49.448;9.056;2023-08-24T05:51:26;20.80;99.90
34147;DHT22;20423;49.448;9.056;2023-08-24T05:53:52;20.80;99.90
34147;DHT22;20423;49.448;9.056;2023-08-24T05:56:24;20.90;99.90
34147;DHT22;20423;49.448;9.056;2023-08-24T05:58:50;20.90;99.90
34147;DHT22;20423;49.448;9.056;2023-08-24T06:01:15;21.00;99.90
34147;DHT22;20423;49.448;9.056;2023-08-24T06:03:41;21.10;99.90
34147;DHT22;20423;49.448;9.056;2023-08-24T06:06:07;21.10;99.90
34147;DHT22;20423;49.448;9.056;2023-08-24T06:08:34;21.10;99.90
34147;DHT22;20423;49.448;9.056;2023-08-24T06:11:00;21.10;99.90
34147;DHT22;20423;49.448;9.056;2023-08-24T06:13:26;21.10;99.90
34147;DHT22;20423;49.448;9.056;2023-08-24T06:15:52;21.10;99.90
34147;DHT22;20423;49.448;9.056;2023-08-24T06:18:20;21.10;99.90
34147;DHT22;20423;49.448;9.056;2023-08-24T06:20:46;21.20;99.90
34147;DHT22;20423;49.448;9.056;2023-08-24T06:23:12;21.30;99.90
34147;DHT22;20423;49.448;9.056;2023-08-24T06:25:39;21.30;99.90
34147;DHT22;20423;49.448;9.056;2023-08-24T06:28:05;21.30;99.90
34147;DHT22;20423;49.448;9.056;2023-08-24T06:30:30;21.30;99.90
34147;DHT22;20423;49.448;9.056;2023-08-24T06:33:03;21.30;99.90
34147;DHT22;20423;49.448;9.056;2023-08-24T06:35:29;21.40;99.90
34147;DHT22;20423;49.448;9.056;2023-08-24T06:37:54;21.60;99.90
34147;DHT22;20423;49.448;9.056;2023-08-24T06:40:20;21.70;99.90
34147;DHT22;20423;49.448;9.056;2023-08-24T06:42:46;21.80;99.90
34147;DHT22;20423;49.448;9.056;2023-08-24T06:45:12;22.00;99.90
34147;DHT22;20423;49.448;9.056;2023-08-24T06:47:39;22.20;99.90
34147;DHT22;20423;49.448;9.056;2023-08-24T06:50:06;22.30;99.90
34147;DHT22;20423;49.448;9.056;2023-08-24T06:52:32;22.40;99.90
34147;DHT22;20423;49.448;9.056;2023-08-24T06:54:59;22.30;99.90
34147;DHT22;20423;49.448;9.056;2023-08-24T06:57:24;22.30;99.90
34147;DHT22;20423;49.448;9.056;2023-08-24T06:59:50;22.40;99.90
34147;DHT22;20423;49.448;9.056;2023-08-24T07:02:16;22.50;99.90
34147;DHT22;20423;49.448;9.056;2023-08-24T07:04:43;22.40;99.90
34147;DHT22;20423;49.448;9.056;2023-08-24T07:07:09;22.50;99.90
34147;DHT22;20423;49.448;9.056;2023-08-24T07:09:35;22.60;99.90
34147;DHT22;20423;49.448;9.056;2023-08-24T07:12:04;22.60;99.90
34147;DHT22;20423;49.448;9.056;2023-08-24T07:14:33;22.60;99.90
34147;DHT22;20423;49.448;9.056;2023-08-24T07:16:59;22.70;99.90
34147;DHT22;20423;49.448;9.056;2023-08-24T07:19:24;22.80;99.90
34147;DHT22;20423;49.448;9.056;2023-08-24T07:21:50;22.90;99.90
34147;DHT22;20423;49.448;9.056;2023-08-24T07:24:17;22.90;99.90
34147;DHT22;20423;49.448;9.056;2023-08-24T07:26:45;23.00;99.90
34147;DHT22;20423;49.448;9.056;2023-08-24T07:29:11;23.00;99.90
34147;DHT22;20423;49.448;9.056;2023-08-24T07:31:37;23.00;99.90
34147;DHT22;20423;49.448;9.056;2023-08-24T07:34:03;23.00;99.90
34147;DHT22;20423;49.448;9.056;2023-08-24T07:36:29;23.00;99.90
34147;DHT22;20423;49.448;9.056;2023-08-24T07:38:56;22.90;99.90
34147;DHT22;20423;49.448;9.056;2023-08-24T07:41:21;22.80;99.90
34147;DHT22;20423;49.448;9.056;2023-08-24T07:43:47;22.70;99.90
34147;DHT22;20423;49.448;9.056;2023-08-24T07:46:34;23.00;99.90
34147;DHT22;20423;49.448;9.056;2023-08-24T07:49:00;23.50;99.90
34147;DHT22;20423;49.448;9.056;2023-08-24T07:51:25;23.70;99.90
34147;DHT22;20423;49.448;9.056;2023-08-24T07:53:52;23.80;99.90
34147;DHT22;20423;49.448;9.056;2023-08-24T07:56:49;23.90;99.90
34147;DHT22;20423;49.448;9.056;2023-08-24T07:59:14;24.20;99.90
34147;DHT22;20423;49.448;9.056;2023-08-24T08:01:40;24.50;99.90
34147;DHT22;20423;49.448;9.056;2023-08-24T08:04:06;24.60;99.90
34147;DHT22;20423;49.448;9.056;2023-08-24T08:06:31;25.00;99.90
34147;DHT22;20423;49.448;9.056;2023-08-24T08:08:57;25.30;99.90
34147;DHT22;20423;49.448;9.056;2023-08-24T08:11:23;25.60;99.90
34147;DHT22;20423;49.448;9.056;2023-08-24T08:13:49;26.00;99.90
34147;DHT22;20423;49.448;9.056;2023-08-24T08:16:14;26.10;99.90
34147;DHT22;20423;49.448;9.056;2023-08-24T08:18:40;25.90;99.90
34147;DHT22;20423;49.448;9.056;2023-08-24T08:21:10;25.90;99.90
34147;DHT22;20423;49.448;9.056;2023-08-24T08:23:37;26.20;99.90
34147;DHT22;20423;49.448;9.056;2023-08-24T08:26:03;26.40;99.90
34147;DHT22;20423;49.448;9.056;2023-08-24T08:28:28;26.50;99.90
34147;DHT22;20423;49.448;9.056;2023-08-24T08:30:54;26.50;99.90
34147;DHT22;20423;49.448;9.056;2023-08-24T08:33:19;26.60;99.90
34147;DHT22;20423;49.448;9.056;2023-08-24T08:35:47;26.60;99.90
34147;DHT22;20423;49.448;9.056;2023-08-24T08:38:12;26.50;99.90
34147;DHT22;20423;49.448;9.056;2023-08-24T08:40:39;26.20;99.90
34147;DHT22;20423;49.448;9.056;2023-08-24T08:43:06;26.10;99.90
34147;DHT22;20423;49.448;9.056;2023-08-24T08:45:32;26.00;99.90
34147;DHT22;20423;49.448;9.056;2023-08-24T08:47:59;26.20;99.90
34147;DHT22;20423;49.448;9.056;2023-08-24T08:50:25;26.50;99.90
34147;DHT22;20423;49.448;9.056;2023-08-24T08:52:51;26.60;99.90
34147;DHT22;20423;49.448;9.056;2023-08-24T08:55:17;26.80;99.90
34147;DHT22;20423;49.448;9.056;2023-08-24T08:57:45;27.10;99.90
34147;DHT22;20423;49.448;9.056;2023-08-24T09:00:12;27.30;99.90
34147;DHT22;20423;49.448;9.056;2023-08-24T09:02:43;27.80;99.90
34147;DHT22;20423;49.448;9.056;2023-08-24T09:05:10;28.30;99.90
34147;DHT22;20423;49.448;9.056;2023-08-24T09:07:39;29.20;99.90
34147;DHT22;20423;49.448;9.056;2023-08-24T09:10:05;29.60;99.90
34147;DHT22;20423;49.448;9.056;2023-08-24T09:12:32;29.50;99.90
34147;DHT22;20423;49.448;9.056;2023-08-24T09:14:58;30.00;99.90
34147;DHT22;20423;49.448;9.056;2023-08-24T09:17:27;29.80;99.90
34147;DHT22;20423;49.448;9.056;2023-08-24T09:20:00;30.20;99.90
34147;DHT22;20423;49.448;9.056;2023-08-24T09:22:26;30.20;99.90
34147;DHT22;20423;49.448;9.056;2023-08-24T09:24:52;29.60;99.90
34147;DHT22;20423;49.448;9.056;2023-08-24T09:27:21;29.30;99.90
34147;DHT22;20423;49.448;9.056;2023-08-24T09:29:52;29.80;99.90
34147;DHT22;20423;49.448;9.056;2023-08-24T09:32:24;30.40;99.90
34147;DHT22;20423;49.448;9.056;2023-08-24T09:34:52;30.90;99.90
34147;DHT22;20423;49.448;9.056;2023-08-24T09:37:19;31.20;99.90
34147;DHT22;20423;49.448;9.056;2023-08-24T09:39:46;31.00;99.90
34147;DHT22;20423;49.448;9.056;2023-08-24T09:42:13;31.40;99.90
34147;DHT22;20423;49.448;9.056;2023-08-24T09:44:43;31.00;98.80
34147;DHT22;20423;49.448;9.056;2023-08-24T09:47:10;30.90;99.20
34147;DHT22;20423;49.448;9.056;2023-08-24T09:49:36;30.60;98.80
34147;DHT22;20423;49.448;9.056;2023-08-24T09:52:02;30.40;99.90
34147;DHT22;20423;49.448;9.056;2023-08-24T09:54:32;29.80;99.90
34147;DHT22;20423;49.448;9.056;2023-08-24T09:57:02;29.40;99.90
34147;DHT22;20423;49.448;9.056;2023-08-24T09:59:30;29.00;99.90
34147;DHT22;20423;49.448;9.056;2023-08-24T10:01:56;29.00;99.90
34147;DHT22;20423;49.448;9.056;2023-08-24T10:04:28;29.00;99.90
34147;DHT22;20423;49.448;9.056;2023-08-24T10:07:15;29.10;99.90
34147;DHT22;20423;49.448;9.056;2023-08-24T10:10:04;29.50;99.90
34147;DHT22;20423;49.448;9.056;2023-08-24T10:12:40;29.60;99.90
34147;DHT22;20423;49.448;9.056;2023-08-24T10:15:07;29.40;99.90
34147;DHT22;20423;49.448;9.056;2023-08-24T10:17:36;29.30;99.90
34147;DHT22;20423;49.448;9.056;2023-08-24T10:23:04;28.60;99.90
34147;DHT22;20423;49.448;9.056;2023-08-24T10:25:30;28.90;99.90
34147;DHT22;20423;49.448;9.056;2023-08-24T10:27:56;28.90;99.90
34147;DHT22;20423;49.448;9.056;2023-08-24T10:30:23;28.90;99.90
34147;DHT22;20423;49.448;9.056;2023-08-24T10:32:49;28.70;99.90
34147;DHT22;20423;49.448;9.056;2023-08-24T10:35:19;28.40;99.90
34147;DHT22;20423;49.448;9.056;2023-08-24T10:37:46;28.40;99.90
34147;DHT22;20423;49.448;9.056;2023-08-24T10:40:12;28.50;99.90
34147;DHT22;20423;49.448;9.056;2023-08-24T10:49:04;28.70;99.90
34147;DHT22;20423;49.448;9.056;2023-08-24T10:51:30;28.40;99.90
34147;DHT22;20423;49.448;9.056;2023-08-24T10:53:58;28.60;99.90
34147;DHT22;20423;49.448;9.056;2023-08-24T10:56:37;29.10;99.90
34147;DHT22;20423;49.448;9.056;2023-08-24T10:59:11;29.40;99.90
34147;DHT22;20423;49.448;9.056;2023-08-24T11:01:39;29.30;99.90
34147;DHT22;20423;49.448;9.056;2023-08-24T11:04:06;29.50;99.90
34147;DHT22;20423;49.448;9.056;2023-08-24T11:06:33;29.80;99.90
34147;DHT22;20423;49.448;9.056;2023-08-24T11:09:07;30.30;99.90
34147;DHT22;20423;49.448;9.056;2023-08-24T11:11:39;30.30;99.90
34147;DHT22;20423;49.448;9.056;2023-08-24T11:14:22;30.30;99.90
34147;DHT22;20423;49.448;9.056;2023-08-24T11:16:48;30.10;99.90
34147;DHT22;20423;49.448;9.056;2023-08-24T11:19:15;30.40;99.90
34147;DHT22;20423;49.448;9.056;2023-08-24T11:21:42;30.70;99.90
34147;DHT22;20423;49.448;9.056;2023-08-24T11:24:17;30.90;99.90
34147;DHT22;20423;49.448;9.056;2023-08-24T11:26:46;31.10;99.70
34147;DHT22;20423;49.448;9.056;2023-08-24T11:29:12;31.20;99.90
34147;DHT22;20423;49.448;9.056;2023-08-24T11:31:39;31.60;99.90
34147;DHT22;20423;49.448;9.056;2023-08-24T11:34:05;31.90;99.30
34147;DHT22;20423;49.448;9.056;2023-08-24T11:36:46;32.60;98.70
34147;DHT22;20423;49.448;9.056;2023-08-24T11:39:20;33.60;98.90
34147;DHT22;20423;49.448;9.056;2023-08-24T11:42:06;33.10;98.30
34147;DHT22;20423;49.448;9.056;2023-08-24T11:44:48;33.10;97.70
34147;DHT22;20423;49.448;9.056;2023-08-24T11:47:14;32.40;98.60
34147;DHT22;20423;49.448;9.056;2023-08-24T11:49:41;32.00;99.50
34147;DHT22;20423;49.448;9.056;2023-08-24T11:52:07;31.80;99.90
34147;DHT22;20423;49.448;9.056;2023-08-24T11:54:33;32.20;99.60
34147;DHT22;20423;49.448;9.056;2023-08-24T11:56:59;32.90;99.90
34147;DHT22;20423;49.448;9.056;2023-08-24T11:59:25;32.50;99.70
34147;DHT22;20423;49.448;9.056;2023-08-24T12:01:51;32.10;99.90
34147;DHT22;20423;49.448;9.056;2023-08-24T12:04:20;32.00;99.90
34147;DHT22;20423;49.448;9.056;2023-08-24T12:06:46;32.00;99.90
34147;DHT22;20423;49.448;9.056;2023-08-24T12:09:12;31.80;99.90
34147;DHT22;20423;49.448;9.056;2023-08-24T12:11:38;31.00;99.90
34147;DHT22;20423;49.448;9.056;2023-08-24T12:14:05;30.90;99.90
34147;DHT22;20423;49.448;9.056;2023-08-24T12:16:33;31.10;99.90
34147;DHT22;20423;49.448;9.056;2023-08-24T12:19:00;31.00;99.90
34147;DHT22;20423;49.448;9.056;2023-08-24T12:21:28;30.90;99.90
34147;DHT22;20423;49.448;9.056;2023-08-24T12:23:59;31.00;99.90
34147;DHT22;20423;49.448;9.056;2023-08-24T12:26:28;30.50;99.90
34147;DHT22;20423;49.448;9.056;2023-08-24T12:28:59;30.50;99.90
34147;DHT22;20423;49.448;9.056;2023-08-24T12:31:29;30.70;99.90
34147;DHT22;20423;49.448;9.056;2023-08-24T12:34:04;30.60;99.90
34147;DHT22;20423;49.448;9.056;2023-08-24T12:36:32;30.40;99.90
34147;DHT22;20423;49.448;9.056;2023-08-24T12:38:58;30.40;99.90
34147;DHT22;20423;49.448;9.056;2023-08-24T12:41:24;30.50;99.90
34147;DHT22;20423;49.448;9.056;2023-08-24T12:43:53;30.60;99.90
34147;DHT22;20423;49.448;9.056;2023-08-24T12:46:18;30.40;99.90
34147;DHT22;20423;49.448;9.056;2023-08-24T12:48:46;30.40;99.90
34147;DHT22;20423;49.448;9.056;2023-08-24T12:51:11;30.30;99.90
34147;DHT22;20423;49.448;9.056;2023-08-24T12:53:37;30.10;99.90
34147;DHT22;20423;49.448;9.056;2023-08-24T12:56:03;30.20;99.90
34147;DHT22;20423;49.448;9.056;2023-08-24T12:58:29;30.30;99.90
34147;DHT22;20423;49.448;9.056;2023-08-24T13:00:55;30.50;99.90
34147;DHT22;20423;49.448;9.056;2023-08-24T13:03:21;30.80;99.90
34147;DHT22;20423;49.448;9.056;2023-08-24T13:05:46;30.70;99.90
34147;DHT22;20423;49.448;9.056;2023-08-24T13:08:13;30.80;99.90
34147;DHT22;20423;49.448;9.056;2023-08-24T13:10:39;31.20;99.90
34147;DHT22;20423;49.448;9.056;2023-08-24T13:13:04;31.50;99.90
34147;DHT22;20423;49.448;9.056;2023-08-24T13:15:30;31.70;99.90
34147;DHT22;20423;49.448;9.056;2023-08-24T13:17:56;31.70;99.90
34147;DHT22;20423;49.448;9.056;2023-08-24T13:20:23;31.40;99.90
34147;DHT22;20423;49.448;9.056;2023-08-24T13:22:49;31.30;99.90
34147;DHT22;20423;49.448;9.056;2023-08-24T13:25:14;31.50;99.90
34147;DHT22;20423;49.448;9.056;2023-08-24T13:27:40;31.70;99.90
34147;DHT22;20423;49.448;9.056;2023-08-24T13:30:06;32.00;99.90
34147;DHT22;20423;49.448;9.056;2023-08-24T13:32:32;32.00;99.90
34147;DHT22;20423;49.448;9.056;2023-08-24T13:34:58;32.30;99.90
34147;DHT22;20423;49.448;9.056;2023-08-24T13:37:23;31.80;99.90
34147;DHT22;20423;49.448;9.056;2023-08-24T13:39:50;31.90;99.90
34147;DHT22;20423;49.448;9.056;2023-08-24T13:42:16;31.50;99.90
34147;DHT22;20423;49.448;9.056;2023-08-24T13:44:42;31.30;99.90
34147;DHT22;20423;49.448;9.056;2023-08-24T13:47:08;31.30;99.90
34147;DHT22;20423;49.448;9.056;2023-08-24T13:49:34;31.50;99.90
34147;DHT22;20423;49.448;9.056;2023-08-24T13:51:59;32.00;99.90
34147;DHT22;20423;49.448;9.056;2023-08-24T13:54:25;32.00;99.90
34147;DHT22;20423;49.448;9.056;2023-08-24T13:56:52;32.10;99.90
34147;DHT22;20423;49.448;9.056;2023-08-24T13:59:19;32.30;99.90
34147;DHT22;20423;49.448;9.056;2023-08-24T14:01:45;32.10;99.90
34147;DHT22;20423;49.448;9.056;2023-08-24T14:04:11;32.10;99.90
34147;DHT22;20423;49.448;9.056;2023-08-24T14:06:36;32.30;99.90
34147;DHT22;20423;49.448;9.056;2023-08-24T14:09:03;32.30;99.90
34147;DHT22;20423;49.448;9.056;2023-08-24T14:11:29;32.10;99.90
34147;DHT22;20423;49.448;9.056;2023-08-24T14:13:55;31.70;99.90
34147;DHT22;20423;49.448;9.056;2023-08-24T14:16:21;31.40;99.90
34147;DHT22;20423;49.448;9.056;2023-08-24T14:18:47;30.90;99.90
34147;DHT22;20423;49.448;9.056;2023-08-24T14:21:13;30.70;99.90
34147;DHT22;20423;49.448;9.056;2023-08-24T14:23:40;30.70;99.90
34147;DHT22;20423;49.448;9.056;2023-08-24T14:26:06;30.90;99.90
34147;DHT22;20423;49.448;9.056;2023-08-24T14:28:55;31.00;99.90
34147;DHT22;20423;49.448;9.056;2023-08-24T14:31:23;31.00;99.90
34147;DHT22;20423;49.448;9.056;2023-08-24T14:33:49;30.90;99.90
34147;DHT22;20423;49.448;9.056;2023-08-24T14:36:16;30.70;99.90
34147;DHT22;20423;49.448;9.056;2023-08-24T14:38:42;30.40;99.90
34147;DHT22;20423;49.448;9.056;2023-08-24T14:41:11;30.00;99.90
34147;DHT22;20423;49.448;9.056;2023-08-24T14:43:38;29.70;99.90
34147;DHT22;20423;49.448;9.056;2023-08-24T14:46:04;29.20;99.90
34147;DHT22;20423;49.448;9.056;2023-08-24T14:48:30;28.90;99.90
34147;DHT22;20423;49.448;9.056;2023-08-24T14:50:56;28.50;99.90
34147;DHT22;20423;49.448;9.056;2023-08-24T14:53:24;28.00;99.90
34147;DHT22;20423;49.448;9.056;2023-08-24T14:55:50;27.50;99.90
34147;DHT22;20423;49.448;9.056;2023-08-24T14:58:15;27.10;99.90
34147;DHT22;20423;49.448;9.056;2023-08-24T15:00:41;26.90;99.90
34147;DHT22;20423;49.448;9.056;2023-08-24T15:03:07;26.70;99.90
34147;DHT22;20423;49.448;9.056;2023-08-24T15:05:55;26.40;99.90
34147;DHT22;20423;49.448;9.056;2023-08-24T15:08:21;25.90;99.90
34147;DHT22;20423;49.448;9.056;2023-08-24T15:10:48;25.20;99.90
34147;DHT22;20423;49.448;9.056;2023-08-24T15:13:14;24.60;99.90
34147;DHT22;20423;49.448;9.056;2023-08-24T15:15:40;23.90;99.90
34147;DHT22;20423;49.448;9.056;2023-08-24T15:18:09;23.10;99.90
34147;DHT22;20423;49.448;9.056;2023-08-24T15:20:35;22.60;99.90
34147;DHT22;20423;49.448;9.056;2023-08-24T15:23:00;22.30;99.90
34147;DHT22;20423;49.448;9.056;2023-08-24T15:26:03;22.00;99.90
34147;DHT22;20423;49.448;9.056;2023-08-24T15:28:36;21.80;99.90
34147;DHT22;20423;49.448;9.056;2023-08-24T15:31:02;21.60;99.90
34147;DHT22;20423;49.448;9.056;2023-08-24T15:33:27;21.60;99.90
34147;DHT22;20423;49.448;9.056;2023-08-24T15:35:53;21.60;99.90
34147;DHT22;20423;49.448;9.056;2023-08-24T15:38:19;21.50;99.90
34147;DHT22;20423;49.448;9.056;2023-08-24T15:40:52;21.40;99.90
34147;DHT22;20423;49.448;9.056;2023-08-24T15:43:19;21.40;99.90
34147;DHT22;20423;49.448;9.056;2023-08-24T15:45:44;21.40;99.90